sensor_id;sensor_type;location;lat;lon;timestamp;temperature;humidity
29431;DHT22;16404;49.902;10.074;2023-02-01T00:00:15;8.40;72.30
29431;DHT22;16404;49.902;10.074;2023-02-01T00:03:00;8.30;73.30
29431;DHT22;16404;49.902;10.074;2023-02-01T00:05:44;8.20;72.70
29431;DHT22;16404;49.902;10.074;2023-02-01T00:08:38;8.30;72.80
29431;DHT22;16404;49.902;10.074;2023-02-01T00:11:23;8.40;72.60
29431;DHT22;16404;49.902;10.074;2023-02-01T00:14:07;8.40;72.50
29431;DHT22;16404;49.902;10.074;2023-02-01T00:16:52;8.40;72.40
29431;DHT22;16404;49.902;10.074;2023-02-01T00:19:37;8.40;72.30
29431;DHT22;16404;49.902;10.074;2023-02-01T00:22:21;8.30;72.40
29431;DHT22;16404;49.902;10.074;2023-02-01T00:25:06;8.40;72.40
29431;DHT22;16404;49.902;10.074;2023-02-01T00:27:51;8.40;72.20
29431;DHT22;16404;49.902;10.074;2023-02-01T00:30:35;8.40;72.10
29431;DHT22;16404;49.902;10.074;2023-02-01T00:33:20;8.40;72.10
29431;DHT22;16404;49.902;10.074;2023-02-01T00:36:06;8.40;72.10
29431;DHT22;16404;49.902;10.074;2023-02-01T00:38:51;8.40;73.10
29431;DHT22;16404;49.902;10.074;2023-02-01T00:41:36;8.40;72.30
29431;DHT22;16404;49.902;10.074;2023-02-01T00:44:21;8.30;72.30
29431;DHT22;16404;49.902;10.074;2023-02-01T00:47:05;8.30;72.30
29431;DHT22;16404;49.902;10.074;2023-02-01T00:49:50;8.30;72.20
29431;DHT22;16404;49.902;10.074;2023-02-01T00:52:34;8.30;72.30
29431;DHT22;16404;49.902;10.074;2023-02-01T00:55:19;8.30;72.30
29431;DHT22;16404;49.902;10.074;2023-02-01T00:58:04;8.30;72.00
29431;DHT22;16404;49.902;10.074;2023-02-01T01:00:56;8.40;71.90
29431;DHT22;16404;49.902;10.074;2023-02-01T01:03:49;8.40;71.60
29431;DHT22;16404;49.902;10.074;2023-02-01T01:06:38;8.30;71.60
29431;DHT22;16404;49.902;10.074;2023-02-01T01:09:22;8.30;71.40
29431;DHT22;16404;49.902;10.074;2023-02-01T01:12:07;8.30;71.30
29431;DHT22;16404;49.902;10.074;2023-02-01T01:14:52;8.20;71.40
29431;DHT22;16404;49.902;10.074;2023-02-01T01:17:37;8.20;71.40
29431;DHT22;16404;49.902;10.074;2023-02-01T01:20:22;8.20;71.20
29431;DHT22;16404;49.902;10.074;2023-02-01T01:23:08;8.30;71.20
29431;DHT22;16404;49.902;10.074;2023-02-01T01:25:53;8.20;71.60
29431;DHT22;16404;49.902;10.074;2023-02-01T01:28:37;8.20;70.90
29431;DHT22;16404;49.902;10.074;2023-02-01T01:31:23;8.10;71.10
29431;DHT22;16404;49.902;10.074;2023-02-01T01:34:07;8.10;71.20
29431;DHT22;16404;49.902;10.074;2023-02-01T01:36:52;8.20;71.00
29431;DHT22;16404;49.902;10.074;2023-02-01T01:39:37;8.10;70.60
29431;DHT22;16404;49.902;10.074;2023-02-01T01:42:21;8.20;70.80
29431;DHT22;16404;49.902;10.074;2023-02-01T01:51:08;7.90;71.60
29431;DHT22;16404;49.902;10.074;2023-02-01T01:54:08;7.90;71.80
29431;DHT22;16404;49.902;10.074;2023-02-01T01:56:57;8.00;71.90
29431;DHT22;16404;49.902;10.074;2023-02-01T01:59:48;8.10;71.80
29431;DHT22;16404;49.902;10.074;2023-02-01T02:02:35;8.10;71.60
29431;DHT22;16404;49.902;10.074;2023-02-01T02:05:21;8.20;71.60
29431;DHT22;16404;49.902;10.074;2023-02-01T02:08:05;8.20;71.60
29431;DHT22;16404;49.902;10.074;2023-02-01T02:10:51;8.30;71.40
29431;DHT22;16404;49.902;10.074;2023-02-01T02:13:48;8.30;71.30
29431;DHT22;16404;49.902;10.074;2023-02-01T02:19:48;8.20;71.80
29431;DHT22;16404;49.902;10.074;2023-02-01T02:22:48;8.10;71.80
29431;DHT22;16404;49.902;10.074;2023-02-01T02:29:47;8.20;71.90
29431;DHT22;16404;49.902;10.074;2023-02-01T02:35:50;8.20;71.90
29431;DHT22;16404;49.902;10.074;2023-02-01T02:41:55;8.10;71.80
29431;DHT22;16404;49.902;10.074;2023-02-01T02:45:13;8.20;71.80
29431;DHT22;16404;49.902;10.074;2023-02-01T02:54:17;8.10;72.60
29431;DHT22;16404;49.902;10.074;2023-02-01T03:00:34;8.00;72.30
29431;DHT22;16404;49.902;10.074;2023-02-01T03:03:39;8.10;72.30
29431;DHT22;16404;49.902;10.074;2023-02-01T03:06:43;8.00;72.20
29431;DHT22;16404;49.902;10.074;2023-02-01T03:09:31;8.00;72.30
29431;DHT22;16404;49.902;10.074;2023-02-01T03:12:17;8.10;72.20
29431;DHT22;16404;49.902;10.074;2023-02-01T03:18:36;8.10;72.30
29431;DHT22;16404;49.902;10.074;2023-02-01T03:24:43;8.10;72.30
29431;DHT22;16404;49.902;10.074;2023-02-01T03:27:42;8.20;72.20
29431;DHT22;16404;49.902;10.074;2023-02-01T03:30:37;8.20;72.10
29431;DHT22;16404;49.902;10.074;2023-02-01T03:33:25;8.30;72.20
29431;DHT22;16404;49.902;10.074;2023-02-01T03:36:25;8.30;71.90
29431;DHT22;16404;49.902;10.074;2023-02-01T03:39:18;8.30;72.00
29431;DHT22;16404;49.902;10.074;2023-02-01T03:42:20;8.30;72.00
29431;DHT22;16404;49.902;10.074;2023-02-01T03:45:18;8.20;72.00
29431;DHT22;16404;49.902;10.074;2023-02-01T03:48:09;8.10;72.30
29431;DHT22;16404;49.902;10.074;2023-02-01T03:50:57;8.10;72.50
29431;DHT22;16404;49.902;10.074;2023-02-01T03:53:44;8.10;72.60
29431;DHT22;16404;49.902;10.074;2023-02-01T03:56:32;8.10;72.50
29431;DHT22;16404;49.902;10.074;2023-02-01T03:59:18;8.00;72.50
29431;DHT22;16404;49.902;10.074;2023-02-01T04:02:02;8.10;72.70
29431;DHT22;16404;49.902;10.074;2023-02-01T04:04:47;8.10;72.40
29431;DHT22;16404;49.902;10.074;2023-02-01T04:07:34;8.10;72.20
29431;DHT22;16404;49.902;10.074;2023-02-01T04:10:19;8.10;72.30
29431;DHT22;16404;49.902;10.074;2023-02-01T04:13:04;8.10;72.30
29431;DHT22;16404;49.902;10.074;2023-02-01T04:15:48;8.10;72.30
29431;DHT22;16404;49.902;10.074;2023-02-01T04:18:33;8.10;72.40
29431;DHT22;16404;49.902;10.074;2023-02-01T04:21:19;8.20;72.20
29431;DHT22;16404;49.902;10.074;2023-02-01T04:24:04;8.20;71.90
29431;DHT22;16404;49.902;10.074;2023-02-01T04:26:48;8.10;71.90
29431;DHT22;16404;49.902;10.074;2023-02-01T04:29:33;8.00;72.30
29431;DHT22;16404;49.902;10.074;2023-02-01T04:32:18;8.00;72.50
29431;DHT22;16404;49.902;10.074;2023-02-01T04:35:05;8.00;72.50
29431;DHT22;16404;49.902;10.074;2023-02-01T04:37:49;8.10;72.30
29431;DHT22;16404;49.902;10.074;2023-02-01T04:40:34;8.10;72.20
29431;DHT22;16404;49.902;10.074;2023-02-01T04:43:18;8.10;72.10
29431;DHT22;16404;49.902;10.074;2023-02-01T04:46:03;8.00;72.20
29431;DHT22;16404;49.902;10.074;2023-02-01T04:48:49;8.00;72.00
29431;DHT22;16404;49.902;10.074;2023-02-01T04:51:33;8.00;72.10
29431;DHT22;16404;49.902;10.074;2023-02-01T04:54:18;7.90;72.00
29431;DHT22;16404;49.902;10.074;2023-02-01T04:57:03;7.90;72.10
29431;DHT22;16404;49.902;10.074;2023-02-01T04:59:47;7.90;72.00
29431;DHT22;16404;49.902;10.074;2023-02-01T05:02:32;7.90;71.80
29431;DHT22;16404;49.902;10.074;2023-02-01T05:05:16;7.80;71.90
29431;DHT22;16404;49.902;10.074;2023-02-01T05:08:01;7.80;71.90
29431;DHT22;16404;49.902;10.074;2023-02-01T05:10:45;7.70;72.00
29431;DHT22;16404;49.902;10.074;2023-02-01T05:13:30;7.60;72.00
29431;DHT22;16404;49.902;10.074;2023-02-01T05:16:33;7.60;72.00
29431;DHT22;16404;49.902;10.074;2023-02-01T05:19:18;7.60;72.00
29431;DHT22;16404;49.902;10.074;2023-02-01T05:22:03;7.50;72.00
29431;DHT22;16404;49.902;10.074;2023-02-01T05:24:47;7.40;72.20
29431;DHT22;16404;49.902;10.074;2023-02-01T05:27:32;7.40;72.10
29431;DHT22;16404;49.902;10.074;2023-02-01T05:30:17;7.40;72.00
29431;DHT22;16404;49.902;10.074;2023-02-01T05:33:02;7.30;72.00
29431;DHT22;16404;49.902;10.074;2023-02-01T05:35:46;7.30;72.00
29431;DHT22;16404;49.902;10.074;2023-02-01T05:38:30;7.20;72.10
29431;DHT22;16404;49.902;10.074;2023-02-01T05:41:15;7.30;72.10
29431;DHT22;16404;49.902;10.074;2023-02-01T05:43:59;7.40;71.80
29431;DHT22;16404;49.902;10.074;2023-02-01T05:46:44;7.50;71.30
29431;DHT22;16404;49.902;10.074;2023-02-01T05:49:29;7.40;71.30
29431;DHT22;16404;49.902;10.074;2023-02-01T05:52:13;7.40;71.40
29431;DHT22;16404;49.902;10.074;2023-02-01T05:55:00;7.50;71.40
29431;DHT22;16404;49.902;10.074;2023-02-01T05:57:44;7.40;71.30
29431;DHT22;16404;49.902;10.074;2023-02-01T06:00:29;7.50;71.40
29431;DHT22;16404;49.902;10.074;2023-02-01T06:03:14;7.50;71.30
29431;DHT22;16404;49.902;10.074;2023-02-01T06:05:58;7.60;71.30
29431;DHT22;16404;49.902;10.074;2023-02-01T06:08:44;7.50;72.00
29431;DHT22;16404;49.902;10.074;2023-02-01T06:11:29;7.60;71.30
29431;DHT22;16404;49.902;10.074;2023-02-01T06:14:14;7.60;71.30
29431;DHT22;16404;49.902;10.074;2023-02-01T06:16:58;7.60;71.40
29431;DHT22;16404;49.902;10.074;2023-02-01T06:19:43;7.60;71.40
29431;DHT22;16404;49.902;10.074;2023-02-01T06:22:29;7.60;71.40
29431;DHT22;16404;49.902;10.074;2023-02-01T06:25:13;7.60;71.30
29431;DHT22;16404;49.902;10.074;2023-02-01T06:28:00;7.70;71.30
29431;DHT22;16404;49.902;10.074;2023-02-01T06:30:45;7.70;71.10
29431;DHT22;16404;49.902;10.074;2023-02-01T06:33:30;7.70;71.00
29431;DHT22;16404;49.902;10.074;2023-02-01T06:36:15;7.60;71.00
29431;DHT22;16404;49.902;10.074;2023-02-01T06:39:00;7.60;71.10
29431;DHT22;16404;49.902;10.074;2023-02-01T06:41:48;7.60;71.30
29431;DHT22;16404;49.902;10.074;2023-02-01T06:44:33;7.60;71.20
29431;DHT22;16404;49.902;10.074;2023-02-01T06:47:18;7.60;71.10
29431;DHT22;16404;49.902;10.074;2023-02-01T06:50:02;7.60;71.10
29431;DHT22;16404;49.902;10.074;2023-02-01T06:52:47;7.50;71.20
29431;DHT22;16404;49.902;10.074;2023-02-01T06:55:32;7.50;71.30
29431;DHT22;16404;49.902;10.074;2023-02-01T06:58:16;7.50;71.50
29431;DHT22;16404;49.902;10.074;2023-02-01T07:01:05;7.50;71.30
29431;DHT22;16404;49.902;10.074;2023-02-01T07:03:51;7.50;71.20
29431;DHT22;16404;49.902;10.074;2023-02-01T07:06:35;7.60;71.00
29431;DHT22;16404;49.902;10.074;2023-02-01T07:09:19;7.60;70.90
29431;DHT22;16404;49.902;10.074;2023-02-01T07:12:04;7.60;70.80
29431;DHT22;16404;49.902;10.074;2023-02-01T07:14:49;7.60;70.80
29431;DHT22;16404;49.902;10.074;2023-02-01T07:17:33;7.60;70.60
29431;DHT22;16404;49.902;10.074;2023-02-01T07:20:18;7.60;70.60
29431;DHT22;16404;49.902;10.074;2023-02-01T07:23:03;7.60;70.50
29431;DHT22;16404;49.902;10.074;2023-02-01T07:25:48;7.50;70.80
29431;DHT22;16404;49.902;10.074;2023-02-01T07:28:34;7.50;70.90
29431;DHT22;16404;49.902;10.074;2023-02-01T07:31:19;7.50;71.00
29431;DHT22;16404;49.902;10.074;2023-02-01T07:34:06;7.40;71.20
29431;DHT22;16404;49.902;10.074;2023-02-01T07:36:50;7.40;71.30
29431;DHT22;16404;49.902;10.074;2023-02-01T07:39:35;7.40;71.70
29431;DHT22;16404;49.902;10.074;2023-02-01T07:42:19;7.40;71.90
29431;DHT22;16404;49.902;10.074;2023-02-01T07:45:04;7.50;72.00
29431;DHT22;16404;49.902;10.074;2023-02-01T07:47:51;7.70;72.10
29431;DHT22;16404;49.902;10.074;2023-02-01T07:50:36;7.80;71.90
29431;DHT22;16404;49.902;10.074;2023-02-01T07:53:21;7.90;72.10
29431;DHT22;16404;49.902;10.074;2023-02-01T07:56:17;8.00;72.10
29431;DHT22;16404;49.902;10.074;2023-02-01T07:59:02;8.10;72.10
29431;DHT22;16404;49.902;10.074;2023-02-01T08:01:47;8.40;71.80
29431;DHT22;16404;49.902;10.074;2023-02-01T08:04:32;8.60;71.80
29431;DHT22;16404;49.902;10.074;2023-02-01T08:07:16;8.70;71.80
29431;DHT22;16404;49.902;10.074;2023-02-01T08:10:01;8.90;72.30
29431;DHT22;16404;49.902;10.074;2023-02-01T08:12:46;9.40;71.20
29431;DHT22;16404;49.902;10.074;2023-02-01T08:15:35;9.90;70.30
29431;DHT22;16404;49.902;10.074;2023-02-01T08:18:20;10.30;69.50
29431;DHT22;16404;49.902;10.074;2023-02-01T08:21:11;10.70;68.70
29431;DHT22;16404;49.902;10.074;2023-02-01T08:23:56;10.90;68.10
29431;DHT22;16404;49.902;10.074;2023-02-01T08:26:40;11.30;67.80
29431;DHT22;16404;49.902;10.074;2023-02-01T08:29:25;11.60;66.90
29431;DHT22;16404;49.902;10.074;2023-02-01T08:32:09;12.10;65.70
29431;DHT22;16404;49.902;10.074;2023-02-01T08:34:54;12.40;64.70
29431;DHT22;16404;49.902;10.074;2023-02-01T08:37:39;12.60;64.00
29431;DHT22;16404;49.902;10.074;2023-02-01T08:40:23;12.70;63.20
29431;DHT22;16404;49.902;10.074;2023-02-01T08:43:08;12.80;63.10
29431;DHT22;16404;49.902;10.074;2023-02-01T08:45:54;12.80;62.80
29431;DHT22;16404;49.902;10.074;2023-02-01T08:48:39;12.70;62.60
29431;DHT22;16404;49.902;10.074;2023-02-01T08:51:24;12.40;62.20
29431;DHT22;16404;49.902;10.074;2023-02-01T08:54:08;12.20;62.80
29431;DHT22;16404;49.902;10.074;2023-02-01T08:56:53;11.90;62.90
29431;DHT22;16404;49.902;10.074;2023-02-01T08:59:38;11.70;63.30
29431;DHT22;16404;49.902;10.074;2023-02-01T09:02:26;11.40;63.40
29431;DHT22;16404;49.902;10.074;2023-02-01T09:05:11;11.20;63.90
29431;DHT22;16404;49.902;10.074;2023-02-01T09:07:55;11.10;63.90
29431;DHT22;16404;49.902;10.074;2023-02-01T09:10:41;11.00;63.80
29431;DHT22;16404;49.902;10.074;2023-02-01T09:13:26;10.80;63.70
29431;DHT22;16404;49.902;10.074;2023-02-01T09:16:17;10.60;63.90
29431;DHT22;16404;49.902;10.074;2023-02-01T09:19:06;10.50;63.90
29431;DHT22;16404;49.902;10.074;2023-02-01T09:21:52;10.30;64.00
29431;DHT22;16404;49.902;10.074;2023-02-01T09:24:39;10.30;64.30
29431;DHT22;16404;49.902;10.074;2023-02-01T09:27:23;10.10;64.50
29431;DHT22;16404;49.902;10.074;2023-02-01T09:30:08;10.10;64.60
29431;DHT22;16404;49.902;10.074;2023-02-01T09:32:53;10.00;64.60
29431;DHT22;16404;49.902;10.074;2023-02-01T09:35:37;10.00;64.90
29431;DHT22;16404;49.902;10.074;2023-02-01T09:38:22;9.90;64.80
29431;DHT22;16404;49.902;10.074;2023-02-01T09:48:16;9.70;64.80
29431;DHT22;16404;49.902;10.074;2023-02-01T09:51:04;9.70;64.80
29431;DHT22;16404;49.902;10.074;2023-02-01T09:54:05;9.70;64.90
29431;DHT22;16404;49.902;10.074;2023-02-01T09:56:54;9.60;64.90
29431;DHT22;16404;49.902;10.074;2023-02-01T10:00:12;9.60;64.80
29431;DHT22;16404;49.902;10.074;2023-02-01T10:02:59;9.50;64.60
29431;DHT22;16404;49.902;10.074;2023-02-01T10:09:10;9.70;64.60
29431;DHT22;16404;49.902;10.074;2023-02-01T10:21:56;9.40;64.20
29431;DHT22;16404;49.902;10.074;2023-02-01T10:24:51;9.40;64.10
29431;DHT22;16404;49.902;10.074;2023-02-01T10:27:45;9.30;64.00
29431;DHT22;16404;49.902;10.074;2023-02-01T10:30:39;9.30;64.10
29431;DHT22;16404;49.902;10.074;2023-02-01T10:36:21;9.20;64.10
29431;DHT22;16404;49.902;10.074;2023-02-01T10:39:11;9.20;64.10
29431;DHT22;16404;49.902;10.074;2023-02-01T10:41:58;9.20;64.10
29431;DHT22;16404;49.902;10.074;2023-02-01T10:44:45;9.30;64.10
29431;DHT22;16404;49.902;10.074;2023-02-01T10:47:32;9.30;64.10
29431;DHT22;16404;49.902;10.074;2023-02-01T10:50:53;9.30;64.10
29431;DHT22;16404;49.902;10.074;2023-02-01T10:56:46;9.50;63.70
29431;DHT22;16404;49.902;10.074;2023-02-01T10:59:31;9.50;63.60
29431;DHT22;16404;49.902;10.074;2023-02-01T11:02:31;9.50;63.50
29431;DHT22;16404;49.902;10.074;2023-02-01T11:05:17;9.40;63.70
29431;DHT22;16404;49.902;10.074;2023-02-01T11:08:03;9.30;63.60
29431;DHT22;16404;49.902;10.074;2023-02-01T11:11:00;9.40;63.50
29431;DHT22;16404;49.902;10.074;2023-02-01T11:14:01;9.40;63.30
29431;DHT22;16404;49.902;10.074;2023-02-01T11:17:02;9.40;63.30
29431;DHT22;16404;49.902;10.074;2023-02-01T11:19:47;9.50;62.90
29431;DHT22;16404;49.902;10.074;2023-02-01T11:22:46;9.40;62.90
29431;DHT22;16404;49.902;10.074;2023-02-01T11:25:33;9.50;62.90
29431;DHT22;16404;49.902;10.074;2023-02-01T11:28:23;9.50;62.70
29431;DHT22;16404;49.902;10.074;2023-02-01T11:31:12;9.50;62.60
29431;DHT22;16404;49.902;10.074;2023-02-01T11:34:20;9.50;62.40
29431;DHT22;16404;49.902;10.074;2023-02-01T11:37:17;9.50;62.40
29431;DHT22;16404;49.902;10.074;2023-02-01T11:40:23;9.50;62.40
29431;DHT22;16404;49.902;10.074;2023-02-01T11:46:08;9.70;62.30
29431;DHT22;16404;49.902;10.074;2023-02-01T11:49:28;9.80;62.00
29431;DHT22;16404;49.902;10.074;2023-02-01T11:52:50;9.90;61.90
29431;DHT22;16404;49.902;10.074;2023-02-01T12:11:48;10.30;61.00
29431;DHT22;16404;49.902;10.074;2023-02-01T12:20:46;10.60;60.30
29431;DHT22;16404;49.902;10.074;2023-02-01T12:23:59;10.70;60.10
29431;DHT22;16404;49.902;10.074;2023-02-01T12:33:19;10.70;59.00
29431;DHT22;16404;49.902;10.074;2023-02-01T12:42:14;10.70;59.00
29431;DHT22;16404;49.902;10.074;2023-02-01T12:45:33;10.60;58.90
29431;DHT22;16404;49.902;10.074;2023-02-01T12:48:25;10.60;58.40
29431;DHT22;16404;49.902;10.074;2023-02-01T12:51:17;10.50;58.60
29431;DHT22;16404;49.902;10.074;2023-02-01T12:57:05;10.60;58.60
29431;DHT22;16404;49.902;10.074;2023-02-01T13:05:45;10.50;58.40
29431;DHT22;16404;49.902;10.074;2023-02-01T13:11:45;10.50;58.40
29431;DHT22;16404;49.902;10.074;2023-02-01T13:14:52;10.50;58.50
29431;DHT22;16404;49.902;10.074;2023-02-01T13:17:39;10.40;58.30
29431;DHT22;16404;49.902;10.074;2023-02-01T13:20:47;10.50;58.30
29431;DHT22;16404;49.902;10.074;2023-02-01T13:23:34;10.40;58.40
29431;DHT22;16404;49.902;10.074;2023-02-01T13:26:19;10.50;58.20
29431;DHT22;16404;49.902;10.074;2023-02-01T13:29:10;10.50;58.10
29431;DHT22;16404;49.902;10.074;2023-02-01T13:38:27;10.40;58.00
29431;DHT22;16404;49.902;10.074;2023-02-01T13:44:04;10.30;57.90
29431;DHT22;16404;49.902;10.074;2023-02-01T13:46:55;10.30;57.80
29431;DHT22;16404;49.902;10.074;2023-02-01T13:49:40;10.30;58.00
29431;DHT22;16404;49.902;10.074;2023-02-01T13:52:38;10.30;57.80
29431;DHT22;16404;49.902;10.074;2023-02-01T13:55:31;10.30;58.00
29431;DHT22;16404;49.902;10.074;2023-02-01T13:58:20;10.30;57.90
29431;DHT22;16404;49.902;10.074;2023-02-01T14:04:49;10.30;57.80
29431;DHT22;16404;49.902;10.074;2023-02-01T14:07:34;10.40;57.70
29431;DHT22;16404;49.902;10.074;2023-02-01T14:13:41;10.40;57.60
29431;DHT22;16404;49.902;10.074;2023-02-01T14:16:26;10.40;57.70
29431;DHT22;16404;49.902;10.074;2023-02-01T14:19:25;10.40;57.70
29431;DHT22;16404;49.902;10.074;2023-02-01T14:22:33;10.30;57.70
29431;DHT22;16404;49.902;10.074;2023-02-01T14:25:18;10.30;57.70
29431;DHT22;16404;49.902;10.074;2023-02-01T14:28:20;10.30;57.70
29431;DHT22;16404;49.902;10.074;2023-02-01T14:31:37;10.30;57.60
29431;DHT22;16404;49.902;10.074;2023-02-01T14:37:35;10.20;57.60
29431;DHT22;16404;49.902;10.074;2023-02-01T14:40:24;10.10;57.80
29431;DHT22;16404;49.902;10.074;2023-02-01T14:43:09;10.10;57.80
29431;DHT22;16404;49.902;10.074;2023-02-01T14:45:54;10.10;57.80
29431;DHT22;16404;49.902;10.074;2023-02-01T14:48:41;10.00;57.70
29431;DHT22;16404;49.902;10.074;2023-02-01T14:51:26;10.00;57.60
29431;DHT22;16404;49.902;10.074;2023-02-01T14:54:12;10.00;58.20
29431;DHT22;16404;49.902;10.074;2023-02-01T14:56:58;10.00;57.70
29431;DHT22;16404;49.902;10.074;2023-02-01T14:59:45;10.00;57.70
29431;DHT22;16404;49.902;10.074;2023-02-01T15:02:31;9.90;57.70
29431;DHT22;16404;49.902;10.074;2023-02-01T15:05:33;9.80;58.00
29431;DHT22;16404;49.902;10.074;2023-02-01T15:08:20;9.70;58.30
29431;DHT22;16404;49.902;10.074;2023-02-01T15:11:11;9.70;58.30
29431;DHT22;16404;49.902;10.074;2023-02-01T15:13:58;9.70;58.40
29431;DHT22;16404;49.902;10.074;2023-02-01T15:16:44;9.60;58.30
29431;DHT22;16404;49.902;10.074;2023-02-01T15:19:34;9.60;58.50
29431;DHT22;16404;49.902;10.074;2023-02-01T15:22:19;9.60;58.60
29431;DHT22;16404;49.902;10.074;2023-02-01T15:25:04;9.50;58.60
29431;DHT22;16404;49.902;10.074;2023-02-01T15:27:51;9.50;58.70
29431;DHT22;16404;49.902;10.074;2023-02-01T15:30:36;9.50;58.70
29431;DHT22;16404;49.902;10.074;2023-02-01T15:33:21;9.40;58.60
29431;DHT22;16404;49.902;10.074;2023-02-01T15:39:31;9.40;58.90
29431;DHT22;16404;49.902;10.074;2023-02-01T15:42:17;9.40;59.00
29431;DHT22;16404;49.902;10.074;2023-02-01T15:45:04;9.30;59.10
29431;DHT22;16404;49.902;10.074;2023-02-01T15:47:52;9.30;59.10
29431;DHT22;16404;49.902;10.074;2023-02-01T15:50:39;9.40;59.10
29431;DHT22;16404;49.902;10.074;2023-02-01T15:53:25;9.40;58.90
29431;DHT22;16404;49.902;10.074;2023-02-01T15:56:15;9.40;59.10
29431;DHT22;16404;49.902;10.074;2023-02-01T15:59:02;9.30;59.20
29431;DHT22;16404;49.902;10.074;2023-02-01T16:01:49;9.30;59.30
29431;DHT22;16404;49.902;10.074;2023-02-01T16:04:46;9.30;59.30
29431;DHT22;16404;49.902;10.074;2023-02-01T16:07:34;9.30;59.10
29431;DHT22;16404;49.902;10.074;2023-02-01T16:10:25;9.30;59.10
29431;DHT22;16404;49.902;10.074;2023-02-01T16:13:11;9.30;59.10
29431;DHT22;16404;49.902;10.074;2023-02-01T16:15:55;9.40;59.10
29431;DHT22;16404;49.902;10.074;2023-02-01T16:18:40;9.30;59.10
29431;DHT22;16404;49.902;10.074;2023-02-01T16:21:25;9.30;59.20
29431;DHT22;16404;49.902;10.074;2023-02-01T16:24:10;9.30;59.10
29431;DHT22;16404;49.902;10.074;2023-02-01T16:26:54;9.30;59.30
29431;DHT22;16404;49.902;10.074;2023-02-01T16:29:39;9.30;59.40
29431;DHT22;16404;49.902;10.074;2023-02-01T16:32:24;9.30;59.30
29431;DHT22;16404;49.902;10.074;2023-02-01T16:35:17;9.30;59.30
29431;DHT22;16404;49.902;10.074;2023-02-01T16:38:05;9.40;59.20
29431;DHT22;16404;49.902;10.074;2023-02-01T16:40:56;9.40;59.00
29431;DHT22;16404;49.902;10.074;2023-02-01T16:43:41;9.40;59.10
29431;DHT22;16404;49.902;10.074;2023-02-01T16:46:28;9.30;59.10
29431;DHT22;16404;49.902;10.074;2023-02-01T16:49:22;9.30;59.20
29431;DHT22;16404;49.902;10.074;2023-02-01T16:52:13;9.30;59.40
29431;DHT22;16404;49.902;10.074;2023-02-01T16:54:58;9.30;59.50
29431;DHT22;16404;49.902;10.074;2023-02-01T16:57:43;9.40;59.40
29431;DHT22;16404;49.902;10.074;2023-02-01T17:00:27;9.30;59.50
29431;DHT22;16404;49.902;10.074;2023-02-01T17:03:14;9.40;59.50
29431;DHT22;16404;49.902;10.074;2023-02-01T17:06:00;9.40;59.50
29431;DHT22;16404;49.902;10.074;2023-02-01T17:08:49;9.40;59.60
29431;DHT22;16404;49.902;10.074;2023-02-01T17:11:34;9.30;59.80
29431;DHT22;16404;49.902;10.074;2023-02-01T17:14:20;9.40;60.00
29431;DHT22;16404;49.902;10.074;2023-02-01T17:17:05;9.30;60.00
29431;DHT22;16404;49.902;10.074;2023-02-01T17:19:51;9.30;60.30
29431;DHT22;16404;49.902;10.074;2023-02-01T17:22:37;9.30;60.40
29431;DHT22;16404;49.902;10.074;2023-02-01T17:25:22;9.30;60.50
29431;DHT22;16404;49.902;10.074;2023-02-01T17:28:07;9.20;60.70
29431;DHT22;16404;49.902;10.074;2023-02-01T17:30:51;9.20;60.90
29431;DHT22;16404;49.902;10.074;2023-02-01T17:33:36;9.20;60.90
29431;DHT22;16404;49.902;10.074;2023-02-01T17:36:21;9.20;61.10
29431;DHT22;16404;49.902;10.074;2023-02-01T17:39:05;9.20;61.20
29431;DHT22;16404;49.902;10.074;2023-02-01T17:41:50;9.10;61.30
29431;DHT22;16404;49.902;10.074;2023-02-01T17:44:34;9.10;61.40
29431;DHT22;16404;49.902;10.074;2023-02-01T17:47:19;9.00;61.60
29431;DHT22;16404;49.902;10.074;2023-02-01T17:50:04;8.90;62.00
29431;DHT22;16404;49.902;10.074;2023-02-01T17:52:48;8.90;62.20
29431;DHT22;16404;49.902;10.074;2023-02-01T17:55:35;8.90;62.20
29431;DHT22;16404;49.902;10.074;2023-02-01T17:58:20;8.90;62.10
29431;DHT22;16404;49.902;10.074;2023-02-01T18:01:04;9.00;62.10
29431;DHT22;16404;49.902;10.074;2023-02-01T18:03:49;9.00;62.10
29431;DHT22;16404;49.902;10.074;2023-02-01T18:06:35;8.80;62.10
29431;DHT22;16404;49.902;10.074;2023-02-01T18:09:20;8.80;63.10
29431;DHT22;16404;49.902;10.074;2023-02-01T18:12:04;9.00;62.40
29431;DHT22;16404;49.902;10.074;2023-02-01T18:14:49;9.00;61.90
29431;DHT22;16404;49.902;10.074;2023-02-01T18:17:33;9.00;62.00
29431;DHT22;16404;49.902;10.074;2023-02-01T18:20:20;8.90;62.30
29431;DHT22;16404;49.902;10.074;2023-02-01T18:23:04;9.00;62.30
29431;DHT22;16404;49.902;10.074;2023-02-01T18:25:50;9.00;62.10
29431;DHT22;16404;49.902;10.074;2023-02-01T18:28:35;9.00;62.30
29431;DHT22;16404;49.902;10.074;2023-02-01T18:31:26;9.00;62.30
29431;DHT22;16404;49.902;10.074;2023-02-01T18:34:11;9.00;62.40
29431;DHT22;16404;49.902;10.074;2023-02-01T18:37:00;8.90;62.50
29431;DHT22;16404;49.902;10.074;2023-02-01T18:39:45;8.90;62.70
29431;DHT22;16404;49.902;10.074;2023-02-01T18:42:29;9.00;62.60
29431;DHT22;16404;49.902;10.074;2023-02-01T18:45:35;9.00;62.50
29431;DHT22;16404;49.902;10.074;2023-02-01T18:48:20;9.10;62.70
29431;DHT22;16404;49.902;10.074;2023-02-01T18:51:05;9.10;62.80
29431;DHT22;16404;49.902;10.074;2023-02-01T18:53:49;9.00;63.00
29431;DHT22;16404;49.902;10.074;2023-02-01T18:56:34;9.00;63.20
29431;DHT22;16404;49.902;10.074;2023-02-01T18:59:19;9.00;63.20
29431;DHT22;16404;49.902;10.074;2023-02-01T19:02:03;9.00;63.30
29431;DHT22;16404;49.902;10.074;2023-02-01T19:04:48;9.00;63.40
29431;DHT22;16404;49.902;10.074;2023-02-01T19:07:34;9.00;63.30
29431;DHT22;16404;49.902;10.074;2023-02-01T19:10:21;9.00;63.40
29431;DHT22;16404;49.902;10.074;2023-02-01T19:13:08;8.90;63.70
29431;DHT22;16404;49.902;10.074;2023-02-01T19:15:56;8.80;63.80
29431;DHT22;16404;49.902;10.074;2023-02-01T19:18:41;8.80;64.00
29431;DHT22;16404;49.902;10.074;2023-02-01T19:21:26;8.80;64.10
29431;DHT22;16404;49.902;10.074;2023-02-01T19:24:10;8.70;64.40
29431;DHT22;16404;49.902;10.074;2023-02-01T19:26:55;8.70;64.60
29431;DHT22;16404;49.902;10.074;2023-02-01T19:29:39;8.70;64.70
29431;DHT22;16404;49.902;10.074;2023-02-01T19:32:28;8.70;64.80
29431;DHT22;16404;49.902;10.074;2023-02-01T19:35:13;8.60;64.90
29431;DHT22;16404;49.902;10.074;2023-02-01T19:37:58;8.70;64.90
29431;DHT22;16404;49.902;10.074;2023-02-01T19:40:43;8.80;64.70
29431;DHT22;16404;49.902;10.074;2023-02-01T19:43:28;8.80;64.70
29431;DHT22;16404;49.902;10.074;2023-02-01T19:46:12;8.80;64.60
29431;DHT22;16404;49.902;10.074;2023-02-01T19:48:57;8.70;64.60
29431;DHT22;16404;49.902;10.074;2023-02-01T19:51:41;8.60;65.20